Airport View

Enter AWOS ICAO identifier for current METAR.

ex. KFNL

KGLR 202153Z AUTO VRB04KT 10SM OVC100 06/M03 A3021 RMK AO2 SLP242 T00611028

20 Oct 2020 22:40

Frequency: 118.375

Phone: 989-732-1571

Other Area AWOS: KGOV - KACB - KMGN - KCVX

TAF KPLN 201729Z 2018/2118 VRB04KT P6SM BKN040 FM202300 10005KT P6SM VCSH OVC045 FM210200 10008KT 6SM -RASN BR OVC017 FM210500 09009KT 2SM RA BR OVC008 FM211100 18005KT P6SM VCSH OVC004 FM211400 24014KT P6SM BKN011